createdAt,value
2019-05-25T00:00:50.450Z,0.00
2019-05-25T00:01:50.460Z,0.00
2019-05-25T00:02:50.433Z,0.00
2019-05-25T00:03:50.418Z,0.00
2019-05-25T00:04:50.409Z,0.00
2019-05-25T00:05:50.397Z,0.00
2019-05-25T00:06:50.413Z,0.00
2019-05-25T00:07:50.379Z,0.00
2019-05-25T00:08:50.367Z,0.00
2019-05-25T00:09:50.352Z,0.00
2019-05-25T00:10:50.344Z,0.00
2019-05-25T00:11:50.358Z,0.00
2019-05-25T00:12:50.319Z,0.00
2019-05-25T00:13:50.311Z,0.00
2019-05-25T00:14:50.296Z,0.00
2019-05-25T00:15:50.285Z,0.00
2019-05-25T00:16:50.300Z,0.00
2019-05-25T00:17:50.263Z,0.00
2019-05-25T00:18:50.256Z,0.00
2019-05-25T00:19:50.246Z,0.00
2019-05-25T00:20:50.236Z,0.00
2019-05-25T00:21:50.245Z,0.00
2019-05-25T00:22:50.210Z,0.00
2019-05-25T00:23:50.202Z,0.00
2019-05-25T00:24:50.186Z,0.00
2019-05-25T00:25:50.183Z,0.00
2019-05-25T00:26:50.187Z,0.00
2019-05-25T00:27:50.154Z,0.00
2019-05-25T00:28:50.145Z,0.00
2019-05-25T00:29:50.133Z,0.00
2019-05-25T00:30:50.121Z,0.00
2019-05-25T00:31:50.134Z,0.00
2019-05-25T00:32:50.098Z,0.00
2019-05-25T00:33:50.088Z,0.00
2019-05-25T00:34:50.077Z,0.00
2019-05-25T00:35:50.066Z,0.00
2019-05-25T00:36:50.076Z,0.00
2019-05-25T00:37:50.044Z,0.00
2019-05-25T00:38:50.032Z,0.00
2019-05-25T00:39:50.021Z,0.00
2019-05-25T00:40:50.015Z,0.00
2019-05-25T00:41:50.024Z,0.00
2019-05-25T00:42:49.989Z,0.00
2019-05-25T00:43:49.979Z,0.00
2019-05-25T00:44:49.967Z,0.00
2019-05-25T00:45:49.956Z,0.00
2019-05-25T00:46:49.970Z,0.00
2019-05-25T00:47:49.933Z,0.00
2019-05-25T00:48:49.927Z,0.00
2019-05-25T00:49:49.911Z,0.00
2019-05-25T00:50:49.921Z,0.00
2019-05-25T00:51:49.888Z,0.00
2019-05-25T00:52:49.902Z,0.00
2019-05-25T00:53:49.873Z,0.00
2019-05-25T00:54:49.856Z,0.00
2019-05-25T00:55:49.866Z,0.00
2019-05-25T00:56:49.833Z,0.00
2019-05-25T00:57:49.847Z,0.00
2019-05-25T00:58:49.812Z,0.00
2019-05-25T00:59:49.800Z,0.00
2019-05-25T01:00:49.801Z,0.00
2019-05-25T01:01:49.780Z,0.00
2019-05-25T01:02:49.801Z,0.00
2019-05-25T01:03:49.761Z,0.00
2019-05-25T01:04:49.750Z,0.00
2019-05-25T01:05:49.738Z,0.00
2019-05-25T01:06:49.727Z,0.00
2019-05-25T01:07:49.737Z,0.00
2019-05-25T01:08:49.702Z,0.00
2019-05-25T01:09:49.690Z,0.00
2019-05-25T01:10:49.679Z,0.00
2019-05-25T01:11:49.674Z,0.00
2019-05-25T01:12:49.682Z,0.00
2019-05-25T01:13:49.660Z,0.00
2019-05-25T01:14:49.644Z,0.00
2019-05-25T01:15:49.646Z,0.00
2019-05-25T01:16:49.620Z,0.00
2019-05-25T01:17:49.602Z,0.00
2019-05-25T01:18:49.640Z,0.00
2019-05-25T01:19:49.584Z,0.00
2019-05-25T01:20:49.570Z,0.00
2019-05-25T01:21:49.561Z,0.00
2019-05-25T01:22:49.548Z,0.00
2019-05-25T01:23:49.562Z,0.00
2019-05-25T01:24:49.525Z,0.00
2019-05-25T01:25:49.517Z,0.00
2019-05-25T01:26:49.502Z,0.00
2019-05-25T01:27:49.492Z,0.00
2019-05-25T01:28:49.502Z,0.00
2019-05-25T01:29:49.472Z,0.00
2019-05-25T01:30:49.462Z,0.00
2019-05-25T01:31:49.447Z,0.00
2019-05-25T01:32:49.436Z,0.00
2019-05-25T01:33:49.449Z,0.00
2019-05-25T01:34:49.413Z,0.00
2019-05-25T01:35:49.404Z,0.00
2019-05-25T01:36:49.396Z,0.00
2019-05-25T01:37:49.384Z,0.00
2019-05-25T01:38:49.406Z,0.00
2019-05-25T01:39:49.360Z,0.00
2019-05-25T01:40:49.352Z,0.00
2019-05-25T01:41:49.340Z,0.00
2019-05-25T01:42:49.327Z,0.00
2019-05-25T01:43:49.336Z,0.00
2019-05-25T01:44:49.303Z,0.00
2019-05-25T01:45:49.292Z,0.00
2019-05-25T01:46:49.309Z,0.00
2019-05-25T01:47:49.270Z,0.00
2019-05-25T01:48:49.259Z,0.00
2019-05-25T01:49:49.270Z,0.00
2019-05-25T01:50:49.240Z,0.00
2019-05-25T01:51:49.226Z,0.00
2019-05-25T01:52:49.218Z,0.00
2019-05-25T01:53:49.205Z,0.00
2019-05-25T01:54:59.380Z,0.00
2019-05-25T01:55:50.181Z,0.00
2019-05-25T01:56:49.173Z,0.00
2019-05-25T01:57:49.159Z,0.00
2019-05-25T01:58:49.153Z,0.00
2019-05-25T01:59:49.159Z,0.00
2019-05-25T02:00:49.127Z,0.00
2019-05-25T02:01:49.116Z,0.00
2019-05-25T02:02:49.105Z,0.00
2019-05-25T02:03:49.096Z,0.00
2019-05-25T02:04:49.108Z,0.00
2019-05-25T02:05:49.075Z,0.00
2019-05-25T02:06:49.082Z,0.00
2019-05-25T02:07:49.051Z,0.00
2019-05-25T02:08:49.039Z,0.00
2019-05-25T02:09:49.031Z,0.00
2019-05-25T02:10:49.037Z,0.00
2019-05-25T02:11:49.007Z,0.00
2019-05-25T02:12:48.998Z,0.00
2019-05-25T02:13:48.983Z,0.00
2019-05-25T02:14:48.976Z,0.00
2019-05-25T02:15:48.998Z,0.00
2019-05-25T02:16:48.954Z,0.00
2019-05-25T02:17:48.939Z,0.00
2019-05-25T02:18:48.933Z,0.00
2019-05-25T02:19:48.917Z,0.00
2019-05-25T02:20:48.927Z,0.00
2019-05-25T02:21:48.895Z,0.00
2019-05-25T02:22:48.886Z,0.00
2019-05-25T02:23:48.888Z,0.00
2019-05-25T02:24:48.870Z,0.00
2019-05-25T02:25:48.874Z,0.00
2019-05-25T02:26:48.861Z,0.00
2019-05-25T02:27:48.832Z,0.00
2019-05-25T02:28:48.817Z,0.00
2019-05-25T02:29:48.807Z,0.00
2019-05-25T02:30:48.816Z,0.00
2019-05-25T02:31:48.788Z,0.00
2019-05-25T02:32:48.777Z,0.00
2019-05-25T02:33:48.767Z,0.00
2019-05-25T02:34:48.753Z,0.00
2019-05-25T02:35:48.761Z,0.00
2019-05-25T02:36:48.734Z,0.00
2019-05-25T02:37:48.718Z,0.00
2019-05-25T02:38:48.708Z,0.00
2019-05-25T02:39:48.701Z,0.00
2019-05-25T02:40:48.709Z,0.00
2019-05-25T02:41:48.675Z,0.00
2019-05-25T02:42:48.687Z,0.00
2019-05-25T02:43:48.664Z,0.00
2019-05-25T02:44:48.641Z,0.00
2019-05-25T02:45:48.630Z,0.00
2019-05-25T02:46:48.648Z,0.00
2019-05-25T02:47:48.614Z,0.00
2019-05-25T02:48:48.596Z,0.00
2019-05-25T02:49:48.586Z,0.00
2019-05-25T02:50:48.582Z,0.00
2019-05-25T02:51:48.584Z,0.00
2019-05-25T02:52:48.552Z,0.00
2019-05-25T02:53:48.547Z,0.00
2019-05-25T02:54:48.531Z,0.00
2019-05-25T02:55:48.519Z,0.00
2019-05-25T02:56:48.529Z,0.00
2019-05-25T02:57:48.500Z,0.00
2019-05-25T02:58:48.486Z,0.00
2019-05-25T02:59:48.478Z,0.00
2019-05-25T03:00:48.472Z,0.00
2019-05-25T03:01:48.474Z,0.00
2019-05-25T03:02:48.441Z,0.00
2019-05-25T03:03:48.434Z,0.00
2019-05-25T03:04:48.420Z,0.00
2019-05-25T03:05:48.409Z,0.00
2019-05-25T03:06:48.420Z,0.00
2019-05-25T03:07:48.393Z,0.00
2019-05-25T03:08:48.375Z,0.00
2019-05-25T03:09:48.532Z,0.00
2019-05-25T03:10:48.356Z,0.00
2019-05-25T03:11:48.364Z,0.00
2019-05-25T03:12:48.334Z,0.00
2019-05-25T03:13:48.322Z,0.00
2019-05-25T03:14:48.309Z,0.00
2019-05-25T03:15:48.331Z,0.00
2019-05-25T03:16:48.374Z,0.00
2019-05-25T03:17:48.610Z,0.00
2019-05-25T03:18:48.286Z,0.00
2019-05-25T03:19:48.348Z,0.00
2019-05-25T03:20:48.243Z,0.00
2019-05-25T03:21:48.235Z,4.00
2019-05-25T03:22:48.245Z,4.00
2019-05-25T03:23:48.210Z,4.00
2019-05-25T03:24:48.202Z,4.00
2019-05-25T03:25:50.005Z,4.00
2019-05-25T03:26:48.176Z,4.00
2019-05-25T03:27:48.190Z,4.00
2019-05-25T03:28:48.155Z,4.00
2019-05-25T03:29:48.152Z,4.00
2019-05-25T03:30:48.145Z,4.00
2019-05-25T03:31:48.142Z,4.00
2019-05-25T03:32:48.133Z,8.00
2019-05-25T03:33:48.101Z,8.00
2019-05-25T03:34:48.088Z,4.00
2019-05-25T03:35:48.080Z,8.00
2019-05-25T03:36:48.070Z,8.00
2019-05-25T03:37:48.077Z,8.00
2019-05-25T03:38:48.045Z,8.00
2019-05-25T03:39:48.048Z,12.00
2019-05-25T03:40:48.028Z,12.00
2019-05-25T03:41:48.017Z,12.00
2019-05-25T03:42:48.024Z,8.00
2019-05-25T03:43:47.991Z,12.00
2019-05-25T03:44:47.979Z,12.00
2019-05-25T03:45:47.966Z,12.00
2019-05-25T03:46:47.956Z,16.00
2019-05-25T03:47:47.967Z,16.00
2019-05-25T03:48:47.934Z,12.00
2019-05-25T03:49:47.924Z,16.00
2019-05-25T03:50:47.911Z,16.00
2019-05-25T03:51:47.900Z,20.00
2019-05-25T03:52:47.912Z,16.00
2019-05-25T03:53:47.880Z,20.00
2019-05-25T03:54:47.871Z,20.00
2019-05-25T03:55:47.857Z,20.00
2019-05-25T03:56:47.845Z,20.00
2019-05-25T03:57:47.856Z,24.00
2019-05-25T03:58:47.822Z,24.00
2019-05-25T03:59:47.832Z,24.00
2019-05-25T04:00:47.800Z,24.00
2019-05-25T04:01:47.789Z,24.00
2019-05-25T04:02:47.782Z,28.00
2019-05-25T04:03:47.791Z,24.00
2019-05-25T04:04:47.757Z,28.00
2019-05-25T04:05:47.745Z,28.00
2019-05-25T04:06:47.737Z,32.00
2019-05-25T04:07:47.722Z,32.00
2019-05-25T04:08:47.744Z,32.00
2019-05-25T04:09:47.716Z,32.00
2019-05-25T04:10:47.690Z,32.00
2019-05-25T04:11:47.679Z,36.00
2019-05-25T04:12:47.671Z,32.00
2019-05-25T04:13:47.954Z,36.00
2019-05-25T04:14:47.645Z,36.00
2019-05-25T04:15:47.643Z,40.00
2019-05-25T04:16:47.623Z,40.00
2019-05-25T04:17:47.613Z,36.00
2019-05-25T04:18:47.622Z,40.00
2019-05-25T04:19:47.590Z,44.00
2019-05-25T04:20:47.578Z,40.00
2019-05-25T04:21:47.568Z,40.00
2019-05-25T04:22:47.561Z,40.00
2019-05-25T04:23:47.571Z,44.00
2019-05-25T04:24:47.539Z,44.00
2019-05-25T04:25:47.527Z,48.00
2019-05-25T04:26:47.512Z,48.00
2019-05-25T04:27:47.505Z,52.00
2019-05-25T04:28:50.947Z,52.00
2019-05-25T04:29:47.479Z,60.00
2019-05-25T04:30:47.476Z,64.00
2019-05-25T04:31:47.458Z,68.00
2019-05-25T04:32:47.448Z,72.00
2019-05-25T04:33:47.460Z,80.00
2019-05-25T04:34:47.426Z,76.00
2019-05-25T04:35:47.417Z,76.00
2019-05-25T04:36:47.402Z,80.00
2019-05-25T04:37:47.395Z,84.00
2019-05-25T04:38:47.411Z,88.00
2019-05-25T04:39:47.372Z,92.00
2019-05-25T04:40:47.359Z,92.00
2019-05-25T04:41:47.346Z,92.00
2019-05-25T04:42:47.338Z,88.00
2019-05-25T04:43:48.947Z,88.00
2019-05-25T04:44:47.318Z,92.00
2019-05-25T04:45:47.306Z,92.00
2019-05-25T04:46:47.291Z,96.00
2019-05-25T04:47:47.288Z,104.00
2019-05-25T04:48:47.295Z,104.00
2019-05-25T04:49:47.259Z,104.00
2019-05-25T04:50:47.273Z,116.00
2019-05-25T04:51:47.236Z,124.00
2019-05-25T04:52:47.227Z,124.00
2019-05-25T04:53:47.218Z,128.00
2019-05-25T04:54:47.225Z,144.00
2019-05-25T04:55:47.196Z,152.00
2019-05-25T04:56:47.181Z,160.00
2019-05-25T04:57:47.174Z,168.00
2019-05-25T04:58:47.167Z,168.00
2019-05-25T04:59:47.176Z,164.00
2019-05-25T05:00:47.138Z,168.00
2019-05-25T05:01:47.131Z,172.00
2019-05-25T05:02:47.117Z,168.00
2019-05-25T05:03:47.104Z,172.00
2019-05-25T05:04:47.115Z,176.00
2019-05-25T05:05:47.084Z,176.00
2019-05-25T05:06:47.099Z,180.00
2019-05-25T05:07:47.059Z,176.00
2019-05-25T05:08:47.052Z,176.00
2019-05-25T05:10:01.627Z,184.00
2019-05-25T05:10:48.029Z,180.00
2019-05-25T05:11:47.015Z,180.00
2019-05-25T05:12:47.005Z,168.00
2019-05-25T05:13:46.997Z,144.00
2019-05-25T05:14:47.005Z,132.00
2019-05-25T05:15:46.971Z,124.00
2019-05-25T05:16:46.963Z,108.00
2019-05-25T05:17:46.950Z,112.00
2019-05-25T05:18:46.940Z,112.00
2019-05-25T05:19:46.949Z,112.00
2019-05-25T05:20:46.915Z,120.00
2019-05-25T05:21:46.910Z,128.00
2019-05-25T05:22:46.894Z,112.00
2019-05-25T05:23:46.888Z,108.00
2019-05-25T05:24:46.898Z,104.00
2019-05-25T05:25:46.862Z,92.00
2019-05-25T05:26:55.962Z,92.00
2019-05-25T05:27:47.837Z,92.00
2019-05-25T05:28:49.121Z,96.00
2019-05-25T05:29:46.837Z,104.00
2019-05-25T05:30:46.804Z,100.00
2019-05-25T05:31:46.816Z,112.00
2019-05-25T05:32:46.785Z,124.00
2019-05-25T05:33:46.775Z,112.00
2019-05-25T05:34:46.784Z,108.00
2019-05-25T05:35:46.751Z,112.00
2019-05-25T05:36:46.741Z,108.00
2019-05-25T05:37:46.731Z,120.00
2019-05-25T05:38:46.716Z,128.00
2019-05-25T05:39:46.727Z,136.00
2019-05-25T05:40:46.698Z,140.00
2019-05-25T05:41:46.684Z,136.00
2019-05-25T05:42:46.672Z,144.00
2019-05-25T05:43:46.661Z,140.00
2019-05-25T05:44:46.675Z,136.00
2019-05-25T05:45:46.640Z,136.00
2019-05-25T05:46:46.629Z,140.00
2019-05-25T05:47:46.618Z,132.00
2019-05-25T05:48:46.607Z,140.00
2019-05-25T05:49:46.616Z,148.00
2019-05-25T05:50:46.601Z,148.00
2019-05-25T05:51:46.574Z,156.00
2019-05-25T05:52:46.562Z,152.00
2019-05-25T05:53:46.557Z,152.00
2019-05-25T05:54:46.562Z,152.00
2019-05-25T05:55:46.534Z,152.00
2019-05-25T05:56:46.539Z,152.00
2019-05-25T05:57:46.507Z,152.00
2019-05-25T05:58:46.496Z,152.00
2019-05-25T05:59:46.488Z,156.00
2019-05-25T06:00:46.499Z,156.00
2019-05-25T06:01:46.467Z,152.00
2019-05-25T06:02:46.456Z,156.00
2019-05-25T06:03:46.443Z,164.00
2019-05-25T06:04:46.430Z,160.00
2019-05-25T06:05:46.441Z,172.00
2019-05-25T06:06:46.408Z,176.00
2019-05-25T06:07:46.400Z,192.00
2019-05-25T06:08:46.386Z,200.00
2019-05-25T06:09:46.378Z,204.00
2019-05-25T06:10:46.385Z,208.00
2019-05-25T06:11:46.360Z,208.00
2019-05-25T06:12:46.343Z,220.00
2019-05-25T06:13:46.334Z,236.00
2019-05-25T06:14:46.323Z,236.00
2019-05-25T06:15:46.331Z,244.00
2019-05-25T06:16:46.310Z,256.00
2019-05-25T06:17:46.288Z,276.00
2019-05-25T06:18:46.278Z,284.00
2019-05-25T06:19:46.265Z,292.00
2019-05-25T06:20:46.275Z,276.00
2019-05-25T06:21:46.248Z,280.00
2019-05-25T06:22:46.232Z,284.00
2019-05-25T06:23:46.224Z,308.00
2019-05-25T06:24:46.210Z,332.00
2019-05-25T06:25:46.225Z,372.00
2019-05-25T06:26:46.189Z,344.00
2019-05-25T06:27:46.177Z,332.00
2019-05-25T06:28:46.166Z,328.00
2019-05-25T06:29:46.156Z,344.00
2019-05-25T06:30:46.165Z,376.00
2019-05-25T06:31:46.133Z,372.00
2019-05-25T06:32:46.126Z,344.00
2019-05-25T06:33:46.112Z,308.00
2019-05-25T06:34:46.100Z,316.00
2019-05-25T06:35:46.113Z,308.00
2019-05-25T06:36:46.078Z,292.00
2019-05-25T06:37:46.073Z,280.00
2019-05-25T06:38:46.056Z,304.00
2019-05-25T06:39:46.045Z,348.00
2019-05-25T06:40:46.059Z,384.00
2019-05-25T06:41:46.023Z,400.00
2019-05-25T06:42:46.016Z,400.00
2019-05-25T06:43:46.063Z,400.00
2019-05-25T06:44:45.991Z,356.00
2019-05-25T06:45:46.006Z,352.00
2019-05-25T06:46:45.978Z,368.00
2019-05-25T06:47:45.961Z,372.00
2019-05-25T06:48:45.947Z,340.00
2019-05-25T06:49:45.935Z,364.00
2019-05-25T06:50:45.947Z,376.00
2019-05-25T06:51:45.917Z,360.00
2019-05-25T06:52:45.903Z,364.00
2019-05-25T06:53:45.898Z,384.00
2019-05-25T06:54:45.884Z,384.00
2019-05-25T06:55:45.891Z,368.00
2019-05-25T06:56:45.863Z,308.00
2019-05-25T06:57:45.847Z,336.00
2019-05-25T06:58:45.861Z,356.00
2019-05-25T06:59:45.829Z,368.00
2019-05-25T07:00:45.818Z,384.00
2019-05-25T07:01:45.829Z,380.00
2019-05-25T07:02:45.792Z,400.00
2019-05-25T07:03:45.785Z,396.00
2019-05-25T07:04:45.770Z,416.00
2019-05-25T07:05:45.767Z,432.00
2019-05-25T07:06:45.769Z,352.00
2019-05-25T07:07:45.738Z,372.00
2019-05-25T07:08:45.730Z,284.00
2019-05-25T07:09:45.719Z,248.00
2019-05-25T07:10:45.709Z,244.00
2019-05-25T07:11:45.715Z,248.00
2019-05-25T07:12:45.683Z,272.00
2019-05-25T07:13:45.672Z,272.00
2019-05-25T07:14:45.663Z,308.00
2019-05-25T07:15:45.659Z,308.00
2019-05-25T07:16:45.660Z,324.00
2019-05-25T07:17:45.628Z,328.00
2019-05-25T07:18:45.625Z,336.00
2019-05-25T07:19:45.609Z,308.00
2019-05-25T07:20:45.596Z,280.00
2019-05-25T07:21:45.605Z,320.00
2019-05-25T07:22:45.574Z,300.00
2019-05-25T07:23:45.565Z,252.00
2019-05-25T07:24:45.552Z,264.00
2019-05-25T07:25:45.542Z,292.00
2019-05-25T07:26:45.550Z,300.00
2019-05-25T07:27:58.303Z,312.00
2019-05-25T07:28:46.510Z,324.00
2019-05-25T07:29:45.497Z,324.00
2019-05-25T07:30:46.684Z,324.00
2019-05-25T07:31:45.499Z,336.00
2019-05-25T07:32:45.466Z,340.00
2019-05-25T07:33:45.453Z,316.00
2019-05-25T07:34:45.445Z,276.00
2019-05-25T07:35:45.430Z,272.00
2019-05-25T07:36:45.443Z,276.00
2019-05-25T07:37:45.419Z,252.00
2019-05-25T07:38:45.397Z,236.00
2019-05-25T07:39:45.390Z,260.00
2019-05-25T07:40:45.376Z,256.00
2019-05-25T07:41:45.402Z,264.00
2019-05-25T07:42:45.354Z,268.00
2019-05-25T07:43:45.344Z,252.00
2019-05-25T07:44:45.331Z,248.00
2019-05-25T07:45:45.320Z,240.00
2019-05-25T07:46:45.332Z,236.00
2019-05-25T07:47:45.306Z,248.00
2019-05-25T07:48:45.342Z,248.00
2019-05-25T07:49:45.276Z,228.00
2019-05-25T07:50:45.265Z,244.00
2019-05-25T07:51:45.275Z,284.00
2019-05-25T07:52:45.245Z,296.00
2019-05-25T07:53:45.232Z,292.00
2019-05-25T07:54:45.221Z,252.00
2019-05-25T07:55:45.210Z,220.00
2019-05-25T07:56:45.221Z,224.00
2019-05-25T07:57:45.191Z,216.00
2019-05-25T07:58:45.176Z,228.00
2019-05-25T07:59:45.188Z,232.00
2019-05-25T08:00:45.157Z,236.00
2019-05-25T08:01:45.144Z,248.00
2019-05-25T08:02:45.169Z,276.00
2019-05-25T08:03:45.143Z,336.00
2019-05-25T08:04:45.114Z,308.00
2019-05-25T08:05:45.105Z,312.00
2019-05-25T08:06:45.088Z,308.00
2019-05-25T08:07:45.100Z,352.00
2019-05-25T08:08:45.071Z,340.00
2019-05-25T08:09:45.056Z,320.00
2019-05-25T08:10:45.046Z,368.00
2019-05-25T08:11:45.033Z,436.00
2019-05-25T08:12:45.047Z,408.00
2019-05-25T08:13:45.011Z,380.00
2019-05-25T08:14:45.220Z,360.00
2019-05-25T08:15:44.994Z,360.00
2019-05-25T08:16:44.978Z,388.00
2019-05-25T08:17:44.995Z,560.00
2019-05-25T08:18:44.957Z,616.00
2019-05-25T08:19:44.953Z,544.00
2019-05-25T08:20:47.164Z,400.00
2019-05-25T08:21:44.923Z,460.00
2019-05-25T08:22:44.938Z,456.00
2019-05-25T08:23:44.901Z,452.00
2019-05-25T08:24:44.892Z,416.00
2019-05-25T08:25:44.878Z,360.00
2019-05-25T08:26:44.873Z,392.00
2019-05-25T08:27:44.878Z,368.00
2019-05-25T08:28:44.846Z,408.00
2019-05-25T08:29:44.854Z,336.00
2019-05-25T08:30:45.030Z,320.00
2019-05-25T08:31:44.812Z,336.00
2019-05-25T08:32:44.801Z,444.00
2019-05-25T08:33:44.816Z,508.00
2019-05-25T08:34:44.781Z,516.00
2019-05-25T08:35:46.493Z,504.00
2019-05-25T08:36:44.757Z,560.00
2019-05-25T08:37:44.748Z,468.00
2019-05-25T08:38:44.757Z,328.00
2019-05-25T08:39:44.745Z,292.00
2019-05-25T08:40:44.717Z,352.00
2019-05-25T08:41:45.684Z,396.00
2019-05-25T08:42:44.696Z,464.00
2019-05-25T08:43:44.705Z,440.00
2019-05-25T08:44:44.669Z,428.00
2019-05-25T08:45:44.658Z,528.00
2019-05-25T08:46:44.649Z,444.00
2019-05-25T08:47:44.637Z,536.00
2019-05-25T08:48:44.650Z,520.00
2019-05-25T08:49:44.618Z,424.00
2019-05-25T08:50:44.603Z,368.00
2019-05-25T08:51:44.596Z,448.00
2019-05-25T08:52:44.695Z,376.00
2019-05-25T08:53:46.633Z,464.00
2019-05-25T08:54:44.561Z,588.00
2019-05-25T08:55:44.548Z,500.00
2019-05-25T08:56:44.543Z,436.00
2019-05-25T08:57:44.527Z,372.00
2019-05-25T08:58:49.102Z,312.00
2019-05-25T08:59:44.504Z,336.00
2019-05-25T09:00:44.492Z,364.00
2019-05-25T09:01:44.491Z,364.00
2019-05-25T09:02:44.471Z,352.00
2019-05-25T09:03:44.486Z,332.00
2019-05-25T09:04:44.450Z,328.00
2019-05-25T09:05:44.442Z,368.00
2019-05-25T09:06:44.438Z,376.00
2019-05-25T09:07:44.418Z,372.00
2019-05-25T09:08:44.426Z,340.00
2019-05-25T09:09:44.406Z,312.00
2019-05-25T09:10:44.384Z,276.00
2019-05-25T09:11:44.372Z,260.00
2019-05-25T09:12:44.361Z,244.00
2019-05-25T09:13:44.375Z,312.00
2019-05-25T09:14:44.341Z,292.00
2019-05-25T09:15:44.356Z,288.00
2019-05-25T09:16:44.326Z,288.00
2019-05-25T09:17:44.307Z,296.00
2019-05-25T09:18:44.299Z,324.00
2019-05-25T09:19:44.305Z,272.00
2019-05-25T09:20:44.273Z,300.00
2019-05-25T09:22:01.002Z,288.00
2019-05-25T09:22:45.253Z,304.00
2019-05-25T09:23:44.241Z,364.00
2019-05-25T09:24:44.253Z,348.00
2019-05-25T09:25:44.222Z,388.00
2019-05-25T09:26:44.210Z,312.00
2019-05-25T09:27:44.228Z,308.00
2019-05-25T09:28:44.189Z,304.00
2019-05-25T09:29:44.195Z,268.00
2019-05-25T09:30:44.162Z,316.00
2019-05-25T09:31:44.154Z,308.00
2019-05-25T09:32:44.145Z,324.00
2019-05-25T09:33:44.130Z,344.00
2019-05-25T09:34:44.140Z,376.00
2019-05-25T09:35:44.107Z,396.00
2019-05-25T09:36:44.099Z,392.00
2019-05-25T09:37:44.086Z,404.00
2019-05-25T09:38:44.079Z,408.00
2019-05-25T09:39:44.085Z,420.00
2019-05-25T09:40:44.053Z,424.00
2019-05-25T09:41:44.044Z,428.00
2019-05-25T09:42:44.115Z,420.00
2019-05-25T09:43:44.020Z,404.00
2019-05-25T09:44:44.030Z,404.00
2019-05-25T09:45:43.997Z,412.00
2019-05-25T09:46:43.986Z,432.00
2019-05-25T09:47:43.981Z,456.00
2019-05-25T09:48:43.968Z,468.00
2019-05-25T09:49:43.975Z,452.00
2019-05-25T09:50:43.943Z,448.00
2019-05-25T09:51:43.936Z,448.00
2019-05-25T09:52:43.924Z,452.00
2019-05-25T09:53:43.910Z,468.00
2019-05-25T09:54:43.922Z,452.00
2019-05-25T09:55:43.890Z,440.00
2019-05-25T09:56:43.899Z,432.00
2019-05-25T09:57:43.869Z,416.00
2019-05-25T09:58:43.855Z,420.00
2019-05-25T09:59:43.843Z,416.00
2019-05-25T10:00:43.856Z,416.00
2019-05-25T10:01:43.825Z,424.00
2019-05-25T10:02:44.354Z,424.00
2019-05-25T10:03:43.799Z,420.00
2019-05-25T10:04:43.789Z,428.00
2019-05-25T10:05:43.801Z,428.00
2019-05-25T10:06:43.765Z,416.00
2019-05-25T10:07:43.760Z,408.00
2019-05-25T10:08:43.743Z,408.00
2019-05-25T10:09:43.740Z,396.00
2019-05-25T10:10:43.745Z,388.00
2019-05-25T10:11:43.711Z,384.00
2019-05-25T10:12:43.704Z,372.00
2019-05-25T10:13:43.691Z,364.00
2019-05-25T10:14:43.681Z,368.00
2019-05-25T10:15:43.688Z,376.00
2019-05-25T10:16:43.658Z,380.00
2019-05-25T10:17:43.645Z,388.00
2019-05-25T10:18:43.636Z,384.00
2019-05-25T10:19:43.622Z,380.00
2019-05-25T10:20:43.632Z,384.00
2019-05-25T10:21:43.601Z,368.00
2019-05-25T10:22:43.591Z,352.00
2019-05-25T10:23:43.581Z,344.00
2019-05-25T10:24:43.566Z,340.00
2019-05-25T10:25:43.577Z,340.00
2019-05-25T10:26:43.546Z,360.00
2019-05-25T10:27:43.535Z,360.00
2019-05-25T10:28:43.523Z,368.00
2019-05-25T10:29:43.512Z,356.00
2019-05-25T10:30:43.526Z,348.00
2019-05-25T10:31:43.504Z,356.00
2019-05-25T10:32:43.479Z,364.00
2019-05-25T10:33:43.468Z,356.00
2019-05-25T10:34:43.459Z,364.00
2019-05-25T10:35:43.466Z,360.00
2019-05-25T10:36:43.434Z,360.00
2019-05-25T10:37:43.444Z,368.00
2019-05-25T10:38:43.413Z,380.00
2019-05-25T10:39:43.401Z,404.00
2019-05-25T10:40:43.413Z,444.00
2019-05-25T10:41:43.382Z,496.00
2019-05-25T10:42:43.392Z,544.00
2019-05-25T10:43:43.361Z,568.00
2019-05-25T10:44:43.346Z,560.00
2019-05-25T10:45:43.338Z,564.00
2019-05-25T10:46:43.348Z,592.00
2019-05-25T10:47:43.315Z,620.00
2019-05-25T10:48:43.304Z,604.00
2019-05-25T10:49:43.293Z,572.00
2019-05-25T10:50:43.283Z,540.00
2019-05-25T10:51:43.292Z,536.00
2019-05-25T10:52:43.260Z,560.00
2019-05-25T10:53:43.251Z,572.00
2019-05-25T10:54:43.236Z,560.00
2019-05-25T10:55:43.279Z,548.00
2019-05-25T10:56:43.237Z,536.00
2019-05-25T10:57:43.202Z,496.00
2019-05-25T10:58:43.191Z,460.00
2019-05-25T10:59:52.578Z,424.00
2019-05-25T11:00:44.173Z,392.00
2019-05-25T11:01:43.183Z,376.00
2019-05-25T11:02:43.154Z,368.00
2019-05-25T11:03:43.138Z,368.00
2019-05-25T11:04:43.129Z,372.00
2019-05-25T11:05:43.112Z,396.00
2019-05-25T11:06:43.130Z,420.00
2019-05-25T11:07:43.117Z,428.00
2019-05-25T11:08:43.083Z,456.00
2019-05-25T11:09:43.073Z,480.00
2019-05-25T11:10:43.058Z,444.00
2019-05-25T11:11:43.046Z,440.00
2019-05-25T11:12:43.061Z,452.00
2019-05-25T11:13:43.025Z,472.00
2019-05-25T11:14:43.012Z,464.00
2019-05-25T11:15:43.008Z,464.00
2019-05-25T11:16:42.992Z,464.00
2019-05-25T11:17:43.005Z,456.00
2019-05-25T11:18:42.970Z,456.00
2019-05-25T11:19:42.958Z,460.00
2019-05-25T11:20:42.946Z,444.00
2019-05-25T11:21:42.935Z,456.00
2019-05-25T11:22:42.946Z,468.00
2019-05-25T11:23:42.917Z,488.00
2019-05-25T11:24:42.903Z,496.00
2019-05-25T11:25:42.891Z,536.00
2019-05-25T11:26:42.889Z,612.00
2019-05-25T11:27:42.894Z,612.00
2019-05-25T11:28:42.869Z,512.00
2019-05-25T11:29:42.851Z,452.00
2019-05-25T11:30:42.836Z,372.00
2019-05-25T11:31:42.831Z,364.00
2019-05-25T11:32:42.839Z,364.00
2019-05-25T11:33:42.807Z,388.00
2019-05-25T11:34:42.791Z,376.00
2019-05-25T11:35:42.781Z,404.00
2019-05-25T11:36:42.770Z,384.00
2019-05-25T11:37:42.784Z,352.00
2019-05-25T11:38:42.759Z,388.00
2019-05-25T11:39:42.740Z,396.00
2019-05-25T11:40:42.729Z,384.00
2019-05-25T11:41:42.713Z,368.00
2019-05-25T11:42:42.724Z,376.00
2019-05-25T11:43:42.692Z,388.00
2019-05-25T11:44:42.695Z,388.00
2019-05-25T11:45:45.333Z,372.00
2019-05-25T11:46:42.659Z,364.00
2019-05-25T11:47:42.676Z,376.00
2019-05-25T11:48:42.637Z,368.00
2019-05-25T11:49:42.626Z,348.00
2019-05-25T11:50:42.616Z,340.00
2019-05-25T11:51:42.605Z,332.00
2019-05-25T11:52:42.656Z,308.00
2019-05-25T11:53:42.580Z,320.00
2019-05-25T11:54:42.574Z,308.00
2019-05-25T11:55:42.560Z,324.00
2019-05-25T11:56:42.552Z,316.00
2019-05-25T11:57:42.559Z,308.00
2019-05-25T11:58:47.589Z,304.00
2019-05-25T11:59:43.513Z,296.00
2019-05-25T12:00:42.503Z,316.00
2019-05-25T12:01:42.491Z,312.00
2019-05-25T12:02:42.511Z,324.00
2019-05-25T12:03:42.470Z,332.00
2019-05-25T12:04:42.461Z,340.00
2019-05-25T12:05:42.451Z,352.00
2019-05-25T12:06:42.441Z,360.00
2019-05-25T12:07:44.645Z,340.00
2019-05-25T12:08:42.435Z,328.00
2019-05-25T12:09:42.404Z,340.00
2019-05-25T12:10:42.397Z,348.00
2019-05-25T12:11:42.385Z,424.00
2019-05-25T12:12:42.393Z,368.00
2019-05-25T12:13:42.386Z,372.00
2019-05-25T12:14:42.348Z,360.00
2019-05-25T12:15:42.340Z,364.00
2019-05-25T12:16:42.328Z,336.00
2019-05-25T12:17:42.317Z,328.00
2019-05-25T12:18:42.326Z,320.00
2019-05-25T12:19:42.293Z,304.00
2019-05-25T12:20:42.285Z,300.00
2019-05-25T12:21:42.278Z,292.00
2019-05-25T12:22:42.264Z,292.00
2019-05-25T12:23:42.270Z,296.00
2019-05-25T12:24:42.241Z,312.00
2019-05-25T12:25:42.231Z,296.00
2019-05-25T12:26:42.218Z,296.00
2019-05-25T12:27:42.206Z,288.00
2019-05-25T12:28:42.215Z,284.00
2019-05-25T12:29:42.182Z,288.00
2019-05-25T12:30:42.176Z,288.00
2019-05-25T12:31:42.161Z,296.00
2019-05-25T12:32:42.152Z,292.00
2019-05-25T12:33:42.171Z,304.00
2019-05-25T12:34:42.126Z,304.00
2019-05-25T12:35:45.031Z,284.00
2019-05-25T12:36:42.104Z,276.00
2019-05-25T12:37:42.093Z,280.00
2019-05-25T12:38:42.103Z,284.00
2019-05-25T12:39:42.072Z,292.00
2019-05-25T12:40:53.329Z,300.00
2019-05-25T12:41:43.048Z,316.00
2019-05-25T12:42:45.659Z,344.00
2019-05-25T12:43:42.049Z,344.00
2019-05-25T12:44:42.041Z,324.00